Terminal Aerodrome Forecast
Issued by NWS

Home | Current Version | Previous Version | Text Only | Print | Product List | Glossary On
Versions: 1 2 3 4 5 6 7 8 9 10 11 12 13 14 15 16 17 18 19 20 21 22 23 24 25 26 27 28 29 30 31 32 33 34 35 36 37 38 39 40 41 42 43 44 45 46 47 48 49 50
000
FTUS44 KHGX 290522
TAFIAH
TAF
KIAH 290522Z 2906/3012 16017G26KT P6SM SCT020 BKN028 BKN040
     FM291000 16015KT P6SM VCSH SCT007 BKN012
     FM291500 15013G22KT P6SM VCTS BKN020CB BKN030 OVC250
      TEMPO 2917/2920 VRB10G25KT 3SM TSRA BKN025CB OVC060
     FM292200 18011G18KT P6SM OVC050
     FM300600 20006KT P6SM VCSH BKN025
     FM300900 29008KT P6SM BKN015=

USA.gov is the U.S. government's official web portal to all federal, state and local government web resources and services.